PHKO Airport Information

Runway Information
Runway 17 Length 11000 ft width 150 ft
Elevation 47 ft Threshold 0 ft Heading 185
Runway 35 Length 11000 ft Width 150 ft
Elevation 37 ft Threshold 0 ft Heading 5
Airport Frequencies
Type ATIS Name ATIS Frequency 127.4 MHZ
Type CLD Name CLNC DEL Frequency 121.9 MHZ
Type CNTR Name HONOLULU C Frequency 126 MHZ
Type CTAF Name CTAF Frequency 120.3 MHZ
Type RCO Name HONOLULU Frequency 123.6 MHZ
Type TWR Name TWR Frequency 120.3 MHZ
Airport Navaids
Type VORTAC Name Kona Frequency 112100 KHZ
Airport Weather Information & NOTAM
ADDS - METARS form results

(0420 UTC 24 November 2020)
Data provider http://aviationweather.gov/metar/data/
 
METAR text: PHKO 240400Z 20006KT 10SM SCT014 SCT038 BKN050 OVC150 27/23 A2996 RMK AO2 T02670228
Conditions at: PHKO (KAILUA/KONA , HI, US) observed 0400 UTC 24 November 2020
Temperature: 26.7°C (80°F)
Dewpoint: 22.8°C (73°F) [RH = 79%]
Pressure (altimeter): 29.96 inches Hg (1014.6 mb)
Winds: from the SSW (200 degrees) at 7 MPH (6 knots; 3.1 m/s)
Visibility: 10 or more miles (16+ km)
Ceiling: 5000 feet AGL
Clouds: scattered clouds at 1400 feet AGL
scattered clouds at 3800 feet AGL
broken clouds at 5000 feet AGL
overcast cloud deck at 15000 feet AGL
Weather: no significant weather observed at this time

METAR text: PHKO 240353Z COR 23004KT 10SM SCT014 SCT038 BKN050 OVC150 27/23 A2996 RMK AO2 RAE22 SLP143 P0000 T02670228
Conditions at: PHKO (KAILUA/KONA , HI, US) observed 0353 UTC 24 November 2020
Temperature: 26.7°C (80°F)
Dewpoint: 22.8°C (73°F) [RH = 79%]
Pressure (altimeter): 29.96 inches Hg (1014.6 mb)
[Sea-level pressure: 1014.3 mb]
Winds: from the SW (230 degrees) at 5 MPH (4 knots; 2.1 m/s)
Visibility: 10 or more miles (16+ km)
Ceiling: 5000 feet AGL
Clouds: scattered clouds at 1400 feet AGL
scattered clouds at 3800 feet AGL
broken clouds at 5000 feet AGL
overcast cloud deck at 15000 feet AGL
Weather: no significant weather observed at this time

METAR text: PHKO 240349Z 19003KT 10SM BKN015 BKN035 OVC042 27/23 A2995 RMK AO2 RAE22 P0000
Conditions at: PHKO (KAILUA/KONA , HI, US) observed 0349 UTC 24 November 2020
Temperature: 27.0°C (81°F)
Dewpoint: 23.0°C (73°F) [RH = 79%]
Pressure (altimeter): 29.95 inches Hg (1014.3 mb)
Winds: from the S (190 degrees) at 3 MPH (3 knots; 1.5 m/s)
Visibility: 10 or more miles (16+ km)
Ceiling: 1500 feet AGL
Clouds: broken clouds at 1500 feet AGL
broken clouds at 3500 feet AGL
overcast cloud deck at 4200 feet AGL
Weather: no significant weather observed at this time

Forecast for: PHKO (KAILUA/KONA , HI, US)
Text: PHKO 232320Z 2400/2424 20009KT P6SM FEW025 SCT050 BKN200
Forecast period: 0000 to 0600 UTC 24 November 2020
Forecast type: FROM: standard forecast or significant change
Winds: from the SSW (200 degrees) at 10 MPH (9 knots; 4.6 m/s)
Visibility: 6 or more miles (10+ km)
Ceiling: 20000 feet AGL
Clouds: few clouds at 2500 feet AGL
scattered clouds at 5000 feet AGL
broken clouds at 20000 feet AGL
Weather: no significant weather forecast for this period
Text: FM240600 11006KT P6SM FEW050 BKN200
Forecast period: 0600 to 2000 UTC 24 November 2020
Forecast type: FROM: standard forecast or significant change
Winds: from the ESE (110 degrees) at 7 MPH (6 knots; 3.1 m/s)
Visibility: 6 or more miles (10+ km)
Ceiling: 20000 feet AGL
Clouds: few clouds at 5000 feet AGL
broken clouds at 20000 feet AGL
Weather: no significant weather forecast for this period
Text: FM242000 21009KT P6SM FEW025 SCT050 SCT200
Forecast period: 2000 UTC 24 November 2020 to 0000 UTC 25 November 2020
Forecast type: FROM: standard forecast or significant change
Winds: from the SSW (210 degrees) at 10 MPH (9 knots; 4.6 m/s)
Visibility: 6 or more miles (10+ km)
Ceiling: at least 12,000 feet AGL
Clouds: few clouds at 2500 feet AGL
scattered clouds at 5000 feet AGL
scattered clouds at 20000 feet AGL
Weather: no significant weather forecast for this period